Estación de Coihueco

Ultimos registro cada 15 minutos 90
Estación Fecha / Hora Temperatura Humedad Lluvia Velocidad Dirección Radiación Presion
90 Coihueco 06-05-2026 22:15 9,9 90,3 0 0,5 223 0,6 997,2
89 Coihueco 06-05-2026 22:00 10,2 88,3 0 1 215 0,6 997,2
88 Coihueco 06-05-2026 21:45 10,2 88,1 0 0 208 0,6 996,8
87 Coihueco 06-05-2026 21:30 10,6 85,3 0 1 227 0,6 996,8
86 Coihueco 06-05-2026 21:15 10,6 85,9 0 0 220 0,6 996,6
85 Coihueco 06-05-2026 21:00 10,9 86 0 0,5 209 0,6 996,4
84 Coihueco 06-05-2026 20:45 10,7 89,3 0 0,5 250 0,6 996,3
83 Coihueco 06-05-2026 20:30 10,1 94 0 0 288 0,6 996,1
82 Coihueco 06-05-2026 20:15 10 95,2 0 0 288 0,6 995,8
81 Coihueco 06-05-2026 20:00 9,8 94,8 0 0 288 0,6 995,6
80 Coihueco 06-05-2026 19:45 10,1 90,5 0 0 288 0,6 995,3
79 Coihueco 06-05-2026 19:30 10,7 88,9 0 0 288 0,6 995,1
78 Coihueco 06-05-2026 19:15 10,2 94,2 0 0 288 0,6 994,8
77 Coihueco 06-05-2026 19:00 10,7 92 0 0 288 0,6 994,6
76 Coihueco 06-05-2026 18:45 11,5 88,4 0 0 288 0,6 994,3
75 Coihueco 06-05-2026 18:30 12 85 0 0 284 0,6 994,1
74 Coihueco 06-05-2026 18:15 12,2 86,4 0 0 282 0,6 993,8
73 Coihueco 06-05-2026 18:00 12,3 86,4 0 0,5 289 1,9 993,6
72 Coihueco 06-05-2026 17:45 12,5 85,5 0 1 295 10,6 993,3
71 Coihueco 06-05-2026 17:30 12,5 85,7 0 0,5 314 14,4 993
70 Coihueco 06-05-2026 17:15 12,5 86,1 0 0,5 289 26,9 992,8
69 Coihueco 06-05-2026 17:00 12,7 85,1 0 1 289 40,6 992,7
68 Coihueco 06-05-2026 16:45 13,2 84,4 0 1 289 68,1 992,7
67 Coihueco 06-05-2026 16:30 13,2 84,8 0 1,5 289 94,4 992,5
66 Coihueco 06-05-2026 16:15 13,4 85,9 0 1,5 289 101,9 992,4
65 Coihueco 06-05-2026 16:00 13,8 83,9 0 2 292 139,4 992,3
64 Coihueco 06-05-2026 15:45 13,6 84 0 1,5 306 110,6 992,1
63 Coihueco 06-05-2026 15:30 14 83,7 0 1,5 310 110,6 991,9
62 Coihueco 06-05-2026 15:15 14,4 82,3 0 1,5 285 231,9 991,7
61 Coihueco 06-05-2026 15:00 14,3 83,4 0 1 299 248,1 991,3
60 Coihueco 06-05-2026 14:45 14,3 82,8 0 1 272 74,4 991,1
59 Coihueco 06-05-2026 14:30 14,5 81,3 0 1,5 282 151,9 990,6
58 Coihueco 06-05-2026 14:15 14,5 80,5 0 1,5 285 200,6 990,2
57 Coihueco 06-05-2026 14:00 14,4 84,4 0 2 275 180,6 990,1
56 Coihueco 06-05-2026 13:45 14,6 86,5 0 2,5 277 214,4 989,8
55 Coihueco 06-05-2026 13:30 14,5 86 0 2,5 272 303,1 989,2
54 Coihueco 06-05-2026 13:15 14,7 92,1 0 3 279 788,1 988,9
53 Coihueco 06-05-2026 13:00 13,5 96,6 0 2 284 430,6 988,4
52 Coihueco 06-05-2026 12:45 13,2 97,5 0 2,5 279 183,1 988,1
51 Coihueco 06-05-2026 12:30 13,2 99 0 2,5 285 445,6 987,8
50 Coihueco 06-05-2026 12:15 12,6 99,6 1,2 2,5 293 125,6 987,6
49 Coihueco 06-05-2026 12:00 13 99,8 1 2 1 28,1 987
48 Coihueco 06-05-2026 11:45 12,9 99,9 1 2,5 6 70,6 986,6
47 Coihueco 06-05-2026 11:30 12,9 99,6 0,6 3,5 22 56,9 986,3
46 Coihueco 06-05-2026 11:15 12,8 100 0,4 3 29 93,1 986,2
45 Coihueco 06-05-2026 11:00 12,7 100 0,2 3 25 21,9 986,4
44 Coihueco 06-05-2026 10:45 12,5 99,3 0,4 3 21 41,9 986
43 Coihueco 06-05-2026 10:30 12,4 99,1 0,4 4 34 11,9 985,7
42 Coihueco 06-05-2026 10:15 12,3 99,1 0,6 3,5 34 18,1 985,4
41 Coihueco 06-05-2026 10:00 12,4 98,9 0,2 3,5 41 16,9 985,7
40 Coihueco 06-05-2026 09:45 12,3 99,5 0,4 3,5 37 35,6 985,5
39 Coihueco 06-05-2026 09:30 12,1 99,4 0,4 4 37 9,4 985,4
38 Coihueco 06-05-2026 09:15 12,1 100 1,2 4 39 0,6 985,1
37 Coihueco 06-05-2026 09:00 12,2 100 1,4 3 22 0,6 986,3
36 Coihueco 06-05-2026 08:45 12,2 100 1,2 3 27 0,6 985,7
35 Coihueco 06-05-2026 08:30 12,2 99,7 1 3 31 0,6 985,5
34 Coihueco 06-05-2026 08:15 12,3 98,3 0 3 32 1,9 985,3
33 Coihueco 06-05-2026 08:00 12,3 98,3 0,2 3 35 6,9 985,4
32 Coihueco 06-05-2026 07:45 12,3 98,1 0 3 31 1,9 985,5
31 Coihueco 06-05-2026 07:30 12,3 98,6 0,2 2,5 25 0,6 985,4
30 Coihueco 06-05-2026 07:15 12,3 99,8 0,8 3 29 0,6 985,3
29 Coihueco 06-05-2026 07:00 12,3 99,4 0,6 3 28 0,6 985,1
28 Coihueco 06-05-2026 06:45 12,3 99,8 0 3,5 29 0,6 985
27 Coihueco 06-05-2026 06:30 12,3 99,9 1 3,5 31 0,6 984,7
26 Coihueco 06-05-2026 06:15 12,4 99,5 0,2 3,5 29 0,6 984,5
25 Coihueco 06-05-2026 06:00 12,4 99,3 1 3 28 0,6 984,7
24 Coihueco 06-05-2026 05:45 12,5 98,3 0,2 3 27 0,6 984,6
23 Coihueco 06-05-2026 05:30 12,5 98,1 0,6 3,5 31 0,6 984,4
22 Coihueco 06-05-2026 05:15 12,6 97,2 0 3,5 32 0,6 984,7
21 Coihueco 06-05-2026 05:00 12,5 97,7 0,4 3 32 0,6 984,6
20 Coihueco 06-05-2026 04:45 12,6 97,2 0,4 3 29 0,6 984,8
19 Coihueco 06-05-2026 04:30 12,5 98,7 0,4 2,5 28 0,6 984,9
18 Coihueco 06-05-2026 04:15 12,4 99,4 1,4 2,5 24 0,6 985
17 Coihueco 06-05-2026 04:00 12,4 98 2,2 1,5 11 0,6 985,2
16 Coihueco 06-05-2026 03:45 12,5 96,3 1,4 2 347 0,6 985,3
15 Coihueco 06-05-2026 03:30 12,6 94,9 3 2 0 0,6 984,9
14 Coihueco 06-05-2026 03:15 13,5 88,8 1 1,5 326 0,6 985,2
13 Coihueco 06-05-2026 03:00 15,2 77,2 0 2,5 8 0,6 984,9
12 Coihueco 06-05-2026 02:45 15,2 77 0 3,5 32 0,6 984,4
11 Coihueco 06-05-2026 02:30 15,2 77,3 0 4 34 0,6 984,6
10 Coihueco 06-05-2026 02:15 15,1 77,7 0 3,5 34 0,6 984,5
9 Coihueco 06-05-2026 02:00 15,1 78 0 4 29 0,6 984,7
8 Coihueco 06-05-2026 01:45 15,1 77,7 0 3,5 32 0,6 984,7
7 Coihueco 06-05-2026 01:30 15,1 77,9 0 3,5 37 0,6 984,6
6 Coihueco 06-05-2026 01:15 14,9 79,8 0 3 37 0,6 984,7
5 Coihueco 06-05-2026 01:00 14,6 81,8 0 3 42 0,6 985,1
4 Coihueco 06-05-2026 00:45 14,1 84,4 0 3 42 0,6 985,3
3 Coihueco 06-05-2026 00:30 13,9 85,6 0 3 45 0,6 985,3
2 Coihueco 06-05-2026 00:15 14 85,6 0 3 41 0,6 985,7
1 Coihueco 06-05-2026 00:00 13,9 85,8 0 3 38 0,6 986,2